createdAt,value
2019-03-27T00:00:51.395Z,1024.49
2019-03-27T00:01:51.374Z,1024.44
2019-03-27T00:02:51.362Z,1024.45
2019-03-27T00:03:51.338Z,1024.45
2019-03-27T00:04:51.313Z,1024.44
2019-03-27T00:05:51.297Z,1024.50
2019-03-27T00:06:51.274Z,1024.48
2019-03-27T00:07:51.252Z,1024.47
2019-03-27T00:08:51.235Z,1024.50
2019-03-27T00:09:51.212Z,1024.51
2019-03-27T00:10:51.192Z,1024.48
2019-03-27T00:11:51.174Z,1024.49
2019-03-27T00:12:51.154Z,1024.49
2019-03-27T00:13:51.134Z,1024.51
2019-03-27T00:14:51.116Z,1024.53
2019-03-27T00:15:51.094Z,1024.51
2019-03-27T00:16:51.077Z,1024.47
2019-03-27T00:17:51.052Z,1024.50
2019-03-27T00:18:51.040Z,1024.46
2019-03-27T00:19:51.011Z,1024.45
2019-03-27T00:20:50.994Z,1024.44
2019-03-27T00:21:50.984Z,1024.44
2019-03-27T00:22:50.960Z,1024.43
2019-03-27T00:23:50.932Z,1024.41
2019-03-27T00:24:50.915Z,1024.41
2019-03-27T00:25:50.893Z,1024.40
2019-03-27T00:26:50.873Z,1024.41
2019-03-27T00:27:50.859Z,1024.39
2019-03-27T00:28:50.842Z,1024.41
2019-03-27T00:29:50.815Z,1024.40
2019-03-27T00:30:50.796Z,1024.43
2019-03-27T00:31:50.772Z,1024.38
2019-03-27T00:32:50.756Z,1024.38
2019-03-27T00:33:50.736Z,1024.36
2019-03-27T00:34:50.714Z,1024.34
2019-03-27T00:35:50.696Z,1024.31
2019-03-27T00:36:50.676Z,1024.30
2019-03-27T00:37:50.655Z,1024.30
2019-03-27T00:38:50.634Z,1024.34
2019-03-27T00:39:50.611Z,1024.34
2019-03-27T00:40:50.593Z,1024.35
2019-03-27T00:41:50.577Z,1024.35
2019-03-27T00:42:50.553Z,1024.35
2019-03-27T00:43:50.529Z,1024.34
2019-03-27T00:44:50.509Z,1024.34
2019-03-27T00:45:50.496Z,1024.31
2019-03-27T00:46:50.475Z,1024.33
2019-03-27T00:47:50.448Z,1024.30
2019-03-27T00:48:50.447Z,1024.28
2019-03-27T00:49:50.413Z,1024.30
2019-03-27T00:50:50.390Z,1024.35
2019-03-27T00:51:50.370Z,1024.37
2019-03-27T00:52:50.349Z,1024.39
2019-03-27T00:53:50.333Z,1024.38
2019-03-27T00:54:50.316Z,1024.41
2019-03-27T00:55:50.289Z,1024.43
2019-03-27T00:56:50.271Z,1024.43
2019-03-27T00:57:50.257Z,1024.40
2019-03-27T00:58:50.233Z,1024.39
2019-03-27T00:59:50.210Z,1024.40
2019-03-27T01:00:50.190Z,1024.40
2019-03-27T01:01:50.167Z,1024.38
2019-03-27T01:02:50.153Z,1024.38
2019-03-27T01:03:50.127Z,1024.40
2019-03-27T01:04:50.106Z,1024.43
2019-03-27T01:05:50.091Z,1024.47
2019-03-27T01:06:51.101Z,1024.48
2019-03-27T01:07:50.046Z,1024.45
2019-03-27T01:08:50.035Z,1024.50
2019-03-27T01:09:50.037Z,1024.47
2019-03-27T01:10:49.986Z,1024.48
2019-03-27T01:11:49.965Z,1024.45
2019-03-27T01:12:49.947Z,1024.43
2019-03-27T01:13:49.925Z,1024.44
2019-03-27T01:14:49.904Z,1024.43
2019-03-27T01:15:49.885Z,1024.47
2019-03-27T01:16:49.873Z,1024.43
2019-03-27T01:17:49.846Z,1024.46
2019-03-27T01:18:49.826Z,1024.50
2019-03-27T01:19:49.801Z,1024.49
2019-03-27T01:20:49.790Z,1024.48
2019-03-27T01:21:49.767Z,1024.48
2019-03-27T01:22:49.746Z,1024.47
2019-03-27T01:23:49.720Z,1024.49
2019-03-27T01:24:49.716Z,1024.48
2019-03-27T01:25:49.684Z,1024.45
2019-03-27T01:26:49.665Z,1024.45
2019-03-27T01:27:49.642Z,1024.50
2019-03-27T01:28:49.624Z,1024.46
2019-03-27T01:29:49.607Z,1024.44
2019-03-27T01:30:49.578Z,1024.42
2019-03-27T01:31:49.559Z,1024.42
2019-03-27T01:32:49.537Z,1024.42
2019-03-27T01:33:49.522Z,1024.43
2019-03-27T01:34:49.502Z,1024.46
2019-03-27T01:35:49.477Z,1024.44
2019-03-27T01:36:49.460Z,1024.46
2019-03-27T01:37:49.440Z,1024.44
2019-03-27T01:38:49.416Z,1024.44
2019-03-27T01:39:49.395Z,1024.46
2019-03-27T01:40:49.382Z,1024.42
2019-03-27T01:41:49.353Z,1024.36
2019-03-27T01:42:49.333Z,1024.34
2019-03-27T01:43:49.315Z,1024.32
2019-03-27T01:44:49.330Z,1024.25
2019-03-27T01:45:53.250Z,1024.25
2019-03-27T01:46:49.256Z,1024.31
2019-03-27T01:47:49.230Z,1024.27
2019-03-27T01:48:49.209Z,1024.32
2019-03-27T01:49:49.191Z,1024.32
2019-03-27T01:50:49.178Z,1024.33
2019-03-27T01:51:49.149Z,1024.32
2019-03-27T01:52:49.133Z,1024.28
2019-03-27T01:53:49.107Z,1024.28
2019-03-27T01:54:49.088Z,1024.30
2019-03-27T01:55:49.070Z,1024.26
2019-03-27T01:56:49.051Z,1024.28
2019-03-27T01:57:49.030Z,1024.30
2019-03-27T01:58:49.004Z,1024.28
2019-03-27T01:59:48.985Z,1024.25
2019-03-27T02:00:48.968Z,1024.31
2019-03-27T02:01:48.945Z,1024.28
2019-03-27T02:02:48.932Z,1024.28
2019-03-27T02:03:48.903Z,1024.22
2019-03-27T02:04:48.881Z,1024.22
2019-03-27T02:05:48.862Z,1024.22
2019-03-27T02:06:48.844Z,1024.24
2019-03-27T02:07:48.822Z,1024.25
2019-03-27T02:08:48.911Z,1024.24
2019-03-27T02:09:48.779Z,1024.29
2019-03-27T02:10:48.759Z,1024.31
2019-03-27T02:11:48.737Z,1024.30
2019-03-27T02:12:48.718Z,1024.30
2019-03-27T02:13:48.699Z,1024.34
2019-03-27T02:14:48.677Z,1024.28
2019-03-27T02:15:48.660Z,1024.31
2019-03-27T02:16:48.638Z,1024.29
2019-03-27T02:17:48.617Z,1024.29
2019-03-27T02:18:48.595Z,1024.27
2019-03-27T02:19:48.575Z,1024.28
2019-03-27T02:20:48.556Z,1024.30
2019-03-27T02:21:48.535Z,1024.30
2019-03-27T02:22:48.514Z,1024.26
2019-03-27T02:23:48.492Z,1024.28
2019-03-27T02:24:48.471Z,1024.26
2019-03-27T02:25:48.451Z,1024.28
2019-03-27T02:26:48.431Z,1024.28
2019-03-27T02:27:48.414Z,1024.26
2019-03-27T02:28:48.396Z,1024.24
2019-03-27T02:29:48.371Z,1024.22
2019-03-27T02:30:48.349Z,1024.22
2019-03-27T02:31:48.327Z,1024.20
2019-03-27T02:32:48.323Z,1024.23
2019-03-27T02:33:48.396Z,1024.23
2019-03-27T02:34:48.281Z,1024.26
2019-03-27T02:35:48.246Z,1024.27
2019-03-27T02:36:48.229Z,1024.23
2019-03-27T02:37:48.216Z,1024.23
2019-03-27T02:38:48.186Z,1024.25
2019-03-27T02:39:48.160Z,1024.25
2019-03-27T02:40:48.146Z,1024.24
2019-03-27T02:41:48.123Z,1024.25
2019-03-27T02:42:48.108Z,1024.26
2019-03-27T02:43:48.075Z,1024.29
2019-03-27T02:44:48.058Z,1024.31
2019-03-27T02:45:48.034Z,1024.30
2019-03-27T02:46:48.018Z,1024.36
2019-03-27T02:47:47.995Z,1024.37
2019-03-27T02:48:47.974Z,1024.42
2019-03-27T02:49:47.952Z,1024.44
2019-03-27T02:50:47.932Z,1024.46
2019-03-27T02:51:47.959Z,1024.45
2019-03-27T02:52:47.890Z,1024.46
2019-03-27T02:53:47.869Z,1024.49
2019-03-27T02:54:47.854Z,1024.43
2019-03-27T02:55:47.831Z,1024.45
2019-03-27T02:56:47.830Z,1024.47
2019-03-27T02:57:47.790Z,1024.44
2019-03-27T02:58:47.781Z,1024.44
2019-03-27T02:59:47.743Z,1024.44
2019-03-27T03:00:47.736Z,1024.42
2019-03-27T03:01:48.357Z,1024.39
2019-03-27T03:02:47.681Z,1024.39
2019-03-27T03:03:47.660Z,1024.32
2019-03-27T03:04:47.643Z,1024.31
2019-03-27T03:05:47.631Z,1024.34
2019-03-27T03:06:47.599Z,1024.35
2019-03-27T03:07:47.579Z,1024.33
2019-03-27T03:08:47.556Z,1024.33
2019-03-27T03:09:47.534Z,1024.35
2019-03-27T03:10:47.518Z,1024.35
2019-03-27T03:11:47.495Z,1024.33
2019-03-27T03:12:47.475Z,1024.35
2019-03-27T03:13:47.450Z,1024.35
2019-03-27T03:14:47.435Z,1024.38
2019-03-27T03:15:47.410Z,1024.35
2019-03-27T03:16:47.393Z,1024.37
2019-03-27T03:17:47.370Z,1024.36
2019-03-27T03:18:47.353Z,1024.35
2019-03-27T03:19:47.329Z,1024.39
2019-03-27T03:20:47.307Z,1024.40
2019-03-27T03:21:47.286Z,1024.39
2019-03-27T03:22:47.269Z,1024.42
2019-03-27T03:23:47.330Z,1024.44
2019-03-27T03:24:47.225Z,1024.48
2019-03-27T03:25:47.205Z,1024.47
2019-03-27T03:26:50.760Z,1024.52
2019-03-27T03:27:47.163Z,1024.50
2019-03-27T03:28:47.140Z,1024.50
2019-03-27T03:29:47.125Z,1024.48
2019-03-27T03:30:47.099Z,1024.50
2019-03-27T03:31:47.080Z,1024.48
2019-03-27T03:32:47.058Z,1024.46
2019-03-27T03:33:47.045Z,1024.49
2019-03-27T03:34:47.017Z,1024.47
2019-03-27T03:35:46.993Z,1024.51
2019-03-27T03:36:46.974Z,1024.49
2019-03-27T03:37:46.951Z,1024.47
2019-03-27T03:38:46.940Z,1024.45
2019-03-27T03:39:46.911Z,1024.51
2019-03-27T03:40:46.909Z,1024.51
2019-03-27T03:41:46.869Z,1024.58
2019-03-27T03:42:46.851Z,1024.62
2019-03-27T03:43:46.830Z,1024.63
2019-03-27T03:44:46.811Z,1024.63
2019-03-27T03:45:46.791Z,1024.60
2019-03-27T03:46:59.451Z,1024.60
2019-03-27T03:47:46.760Z,1024.58
2019-03-27T03:48:46.723Z,1024.65
2019-03-27T03:49:46.703Z,1024.69
2019-03-27T03:50:46.685Z,1024.71
2019-03-27T03:51:46.666Z,1024.71
2019-03-27T03:52:46.650Z,1024.73
2019-03-27T03:53:46.621Z,1024.71
2019-03-27T03:54:46.600Z,1024.74
2019-03-27T03:55:46.598Z,1024.74
2019-03-27T03:56:46.564Z,1024.73
2019-03-27T03:57:46.539Z,1024.72
2019-03-27T03:58:46.516Z,1024.75
2019-03-27T03:59:46.493Z,1024.77
2019-03-27T04:00:46.482Z,1024.76
2019-03-27T04:01:46.453Z,1024.76
2019-03-27T04:02:46.431Z,1024.75
2019-03-27T04:03:46.414Z,1024.75
2019-03-27T04:04:46.394Z,1024.73
2019-03-27T04:05:46.386Z,1024.75
2019-03-27T04:06:46.355Z,1024.69
2019-03-27T04:07:46.326Z,1024.72
2019-03-27T04:08:46.422Z,1024.73
2019-03-27T04:09:46.291Z,1024.74
2019-03-27T04:10:46.263Z,1024.71
2019-03-27T04:11:46.243Z,1024.77
2019-03-27T04:12:46.260Z,1024.74
2019-03-27T04:13:46.203Z,1024.76
2019-03-27T04:14:46.187Z,1024.76
2019-03-27T04:15:46.176Z,1024.76
2019-03-27T04:16:46.146Z,1024.75
2019-03-27T04:17:46.120Z,1024.75
2019-03-27T04:18:46.106Z,1024.77
2019-03-27T04:19:46.079Z,1024.75
2019-03-27T04:20:46.057Z,1024.76
2019-03-27T04:21:46.047Z,1024.78
2019-03-27T04:22:46.026Z,1024.81
2019-03-27T04:23:46.001Z,1024.79
2019-03-27T04:24:45.979Z,1024.75
2019-03-27T04:26:07.950Z,1024.86
2019-03-27T04:26:45.937Z,1024.83
2019-03-27T04:27:45.915Z,1024.85
2019-03-27T04:28:45.896Z,1024.80
2019-03-27T04:29:45.873Z,1024.81
2019-03-27T04:30:45.854Z,1024.80
2019-03-27T04:31:45.834Z,1024.83
2019-03-27T04:32:45.809Z,1024.79
2019-03-27T04:33:45.799Z,1024.76
2019-03-27T04:34:47.313Z,1024.81
2019-03-27T04:35:45.748Z,1024.85
2019-03-27T04:36:45.724Z,1024.87
2019-03-27T04:37:45.706Z,1024.91
2019-03-27T04:38:45.684Z,1024.89
2019-03-27T04:39:45.662Z,1024.89
2019-03-27T04:40:45.643Z,1024.94
2019-03-27T04:41:45.621Z,1024.90
2019-03-27T04:42:45.605Z,1024.90
2019-03-27T04:43:45.579Z,1024.94
2019-03-27T04:44:45.559Z,1024.90
2019-03-27T04:45:45.543Z,1024.91
2019-03-27T04:46:45.522Z,1024.95
2019-03-27T04:47:45.496Z,1024.93
2019-03-27T04:48:45.477Z,1024.98
2019-03-27T04:49:45.457Z,1024.99
2019-03-27T04:50:45.435Z,1024.98
2019-03-27T04:51:45.413Z,1025.04
2019-03-27T04:52:45.392Z,1025.06
2019-03-27T04:53:45.370Z,1025.03
2019-03-27T04:54:45.351Z,1025.08
2019-03-27T04:55:45.329Z,1025.08
2019-03-27T04:56:45.308Z,1025.09
2019-03-27T04:57:45.294Z,1025.07
2019-03-27T04:58:45.274Z,1025.12
2019-03-27T04:59:45.246Z,1025.11
2019-03-27T05:00:45.227Z,1025.14
2019-03-27T05:01:45.209Z,1025.10
2019-03-27T05:02:45.194Z,1025.13
2019-03-27T05:03:45.165Z,1025.10
2019-03-27T05:04:45.145Z,1025.10
2019-03-27T05:05:45.125Z,1025.13
2019-03-27T05:06:45.105Z,1025.08
2019-03-27T05:07:45.082Z,1025.08
2019-03-27T05:08:45.065Z,1025.11
2019-03-27T05:09:45.044Z,1025.08
2019-03-27T05:10:45.020Z,1025.05
2019-03-27T05:11:44.997Z,1025.03
2019-03-27T05:12:44.987Z,1025.06
2019-03-27T05:13:44.961Z,1025.04
2019-03-27T05:14:44.935Z,1025.07
2019-03-27T05:15:44.916Z,1025.03
2019-03-27T05:16:44.898Z,1025.00
2019-03-27T05:17:46.494Z,1025.05
2019-03-27T05:18:44.861Z,1025.01
2019-03-27T05:19:44.834Z,1025.03
2019-03-27T05:20:44.813Z,1025.01
2019-03-27T05:21:44.793Z,1024.97
2019-03-27T05:22:44.771Z,1024.96
2019-03-27T05:23:44.749Z,1024.95
2019-03-27T05:24:44.729Z,1024.97
2019-03-27T05:25:44.741Z,1024.95
2019-03-27T05:26:44.697Z,1024.97
2019-03-27T05:27:44.669Z,1024.93
2019-03-27T05:28:44.712Z,1024.94
2019-03-27T05:29:44.626Z,1025.00
2019-03-27T05:30:44.606Z,1025.02
2019-03-27T05:31:44.587Z,1025.03
2019-03-27T05:32:44.574Z,1025.06
2019-03-27T05:33:44.545Z,1025.10
2019-03-27T05:34:44.526Z,1025.14
2019-03-27T05:35:44.504Z,1025.15
2019-03-27T05:36:44.479Z,1025.19
2019-03-27T05:37:44.461Z,1025.26
2019-03-27T05:38:44.447Z,1025.23
2019-03-27T05:39:44.420Z,1025.25
2019-03-27T05:40:44.403Z,1025.25
2019-03-27T05:41:44.381Z,1025.29
2019-03-27T05:42:44.360Z,1025.29
2019-03-27T05:43:44.336Z,1025.31
2019-03-27T05:44:44.324Z,1025.27
2019-03-27T05:45:44.296Z,1025.27
2019-03-27T05:46:44.278Z,1025.28
2019-03-27T05:47:44.254Z,1025.28
2019-03-27T05:48:44.237Z,1025.24
2019-03-27T05:49:44.225Z,1025.22
2019-03-27T05:50:44.197Z,1025.23
2019-03-27T05:51:44.174Z,1025.27
2019-03-27T05:52:44.163Z,1025.29
2019-03-27T05:53:44.136Z,1025.30
2019-03-27T05:54:44.111Z,1025.28
2019-03-27T05:55:44.093Z,1025.30
2019-03-27T05:56:44.069Z,1025.33
2019-03-27T05:57:44.054Z,1025.34
2019-03-27T05:58:44.031Z,1025.36
2019-03-27T05:59:44.010Z,1025.41
2019-03-27T06:00:43.990Z,1025.39
2019-03-27T06:01:43.967Z,1025.44
2019-03-27T06:02:43.953Z,1025.41
2019-03-27T06:03:43.928Z,1025.40
2019-03-27T06:04:43.913Z,1025.43
2019-03-27T06:05:43.891Z,1025.43
2019-03-27T06:06:43.874Z,1025.41
2019-03-27T06:07:43.851Z,1025.44
2019-03-27T06:08:43.827Z,1025.43
2019-03-27T06:09:43.805Z,1025.47
2019-03-27T06:10:43.789Z,1025.51
2019-03-27T06:11:43.767Z,1025.51
2019-03-27T06:12:43.748Z,1025.53
2019-03-27T06:13:43.733Z,1025.51
2019-03-27T06:14:43.709Z,1025.60
2019-03-27T06:15:45.102Z,1025.58
2019-03-27T06:16:43.662Z,1025.56
2019-03-27T06:17:43.643Z,1025.54
2019-03-27T06:18:43.626Z,1025.58
2019-03-27T06:19:43.608Z,1025.57
2019-03-27T06:20:43.583Z,1025.61
2019-03-27T06:21:43.565Z,1025.63
2019-03-27T06:22:43.544Z,1025.57
2019-03-27T06:23:43.521Z,1025.61
2019-03-27T06:24:43.503Z,1025.61
2019-03-27T06:25:43.484Z,1025.62
2019-03-27T06:26:43.471Z,1025.65
2019-03-27T06:27:43.441Z,1025.65
2019-03-27T06:28:43.426Z,1025.65
2019-03-27T06:29:43.400Z,1025.62
2019-03-27T06:30:43.377Z,1025.61
2019-03-27T06:31:43.356Z,1025.60
2019-03-27T06:32:43.343Z,1025.57
2019-03-27T06:33:43.323Z,1025.56
2019-03-27T06:34:43.296Z,1025.55
2019-03-27T06:35:43.280Z,1025.56
2019-03-27T06:36:43.255Z,1025.56
2019-03-27T06:37:43.245Z,1025.54
2019-03-27T06:38:43.219Z,1025.54
2019-03-27T06:39:43.196Z,1025.54
2019-03-27T06:40:43.184Z,1025.58
2019-03-27T06:41:43.157Z,1025.59
2019-03-27T06:42:43.133Z,1025.61
2019-03-27T06:43:43.115Z,1025.68
2019-03-27T06:44:43.095Z,1025.66
2019-03-27T06:45:43.078Z,1025.66
2019-03-27T06:46:43.057Z,1025.69
2019-03-27T06:47:43.035Z,1025.67
2019-03-27T06:48:43.017Z,1025.64
2019-03-27T06:49:43.001Z,1025.65
2019-03-27T06:50:42.973Z,1025.69
2019-03-27T06:51:42.956Z,1025.68
2019-03-27T06:52:42.933Z,1025.68
2019-03-27T06:53:42.916Z,1025.69
2019-03-27T06:54:42.894Z,1025.69
2019-03-27T06:55:42.872Z,1025.68
2019-03-27T06:56:42.853Z,1025.66
2019-03-27T06:57:42.834Z,1025.68
2019-03-27T06:58:53.810Z,1025.68
2019-03-27T06:59:42.798Z,1025.68
2019-03-27T07:00:42.775Z,1025.71
2019-03-27T07:01:42.753Z,1025.66
2019-03-27T07:02:42.735Z,1025.65
2019-03-27T07:03:42.721Z,1025.65
2019-03-27T07:04:42.697Z,1025.66
2019-03-27T07:05:42.672Z,1025.63
2019-03-27T07:06:42.653Z,1025.66
2019-03-27T07:07:42.635Z,1025.69
2019-03-27T07:08:42.614Z,1025.69
2019-03-27T07:09:42.786Z,1025.67
2019-03-27T07:10:42.576Z,1025.68
2019-03-27T07:11:42.553Z,1025.71
2019-03-27T07:12:42.535Z,1025.70
2019-03-27T07:13:42.512Z,1025.70
2019-03-27T07:14:42.502Z,1025.73
2019-03-27T07:15:42.471Z,1025.74
2019-03-27T07:16:42.453Z,1025.77
2019-03-27T07:17:42.431Z,1025.82
2019-03-27T07:18:42.414Z,1025.78
2019-03-27T07:19:42.399Z,1025.80
2019-03-27T07:20:42.372Z,1025.81
2019-03-27T07:21:42.368Z,1025.84
2019-03-27T07:22:42.336Z,1025.82
2019-03-27T07:23:42.315Z,1025.79
2019-03-27T07:24:42.292Z,1025.83
2019-03-27T07:25:42.277Z,1025.79
2019-03-27T07:26:42.251Z,1025.83
2019-03-27T07:27:42.233Z,1025.83
2019-03-27T07:28:42.217Z,1025.87
2019-03-27T07:29:42.194Z,1025.88
2019-03-27T07:30:42.174Z,1025.92
2019-03-27T07:31:42.177Z,1025.88
2019-03-27T07:32:42.137Z,1025.92
2019-03-27T07:33:42.122Z,1025.95
2019-03-27T07:34:42.096Z,1025.94
2019-03-27T07:35:42.078Z,1025.98
2019-03-27T07:36:42.059Z,1026.05
2019-03-27T07:37:42.035Z,1026.03
2019-03-27T07:38:42.014Z,1026.10
2019-03-27T07:39:41.997Z,1026.11
2019-03-27T07:40:41.993Z,1026.11
2019-03-27T07:41:41.967Z,1026.13
2019-03-27T07:42:41.942Z,1026.12
2019-03-27T07:43:41.922Z,1026.15
2019-03-27T07:44:41.899Z,1026.15
2019-03-27T07:45:41.881Z,1026.14
2019-03-27T07:46:41.865Z,1026.16
2019-03-27T07:47:41.843Z,1026.15
2019-03-27T07:48:53.273Z,1026.15
2019-03-27T07:49:41.803Z,1026.17
2019-03-27T07:50:41.799Z,1026.13
2019-03-27T07:51:41.767Z,1026.15
2019-03-27T07:52:41.751Z,1026.14
2019-03-27T07:53:41.731Z,1026.14
2019-03-27T07:54:41.712Z,1026.14
2019-03-27T07:55:41.689Z,1026.16
2019-03-27T07:56:41.672Z,1026.17
2019-03-27T07:57:41.656Z,1026.20
2019-03-27T07:58:41.634Z,1026.23
2019-03-27T07:59:41.623Z,1026.19
2019-03-27T08:00:41.603Z,1026.19
2019-03-27T08:01:41.579Z,1026.24
2019-03-27T08:02:41.559Z,1026.26
2019-03-27T08:03:41.565Z,1026.27
2019-03-27T08:04:41.524Z,1026.27
2019-03-27T08:05:41.509Z,1026.25
2019-03-27T08:06:41.486Z,1026.28
2019-03-27T08:07:41.466Z,1026.30
2019-03-27T08:08:41.451Z,1026.34
2019-03-27T08:09:41.430Z,1026.42
2019-03-27T08:10:41.427Z,1026.41
2019-03-27T08:11:41.553Z,1026.36
2019-03-27T08:12:41.410Z,1026.37
2019-03-27T08:13:41.365Z,1026.33
2019-03-27T08:14:41.345Z,1026.38
2019-03-27T08:15:41.332Z,1026.41
2019-03-27T08:16:41.311Z,1026.34
2019-03-27T08:17:41.296Z,1026.37
2019-03-27T08:18:41.278Z,1026.66
2019-03-27T08:19:41.259Z,1026.38
2019-03-27T08:20:41.242Z,1026.38
2019-03-27T08:21:41.235Z,1026.50
2019-03-27T08:22:41.209Z,1026.33
2019-03-27T08:23:41.199Z,1026.35
2019-03-27T08:24:41.201Z,1026.61
2019-03-27T08:25:41.160Z,1026.84
2019-03-27T08:26:41.142Z,1026.41
2019-03-27T08:27:41.133Z,1026.39
2019-03-27T08:28:41.116Z,1026.40
2019-03-27T08:29:41.096Z,1026.34
2019-03-27T08:30:41.083Z,1026.38
2019-03-27T08:31:41.073Z,1026.37
2019-03-27T08:32:41.051Z,1026.53
2019-03-27T08:33:41.040Z,1027.09
2019-03-27T08:34:41.022Z,1027.21
2019-03-27T08:35:41.003Z,1027.28
2019-03-27T08:36:40.993Z,1027.11
2019-03-27T08:37:40.980Z,1027.38
2019-03-27T08:38:40.966Z,1026.67
2019-03-27T08:39:40.968Z,1026.42
2019-03-27T08:40:40.953Z,1027.31
2019-03-27T08:41:40.931Z,1027.40
2019-03-27T08:42:40.932Z,1027.36
2019-03-27T08:43:40.916Z,1027.39
2019-03-27T08:44:40.903Z,1027.33
2019-03-27T08:45:40.893Z,1027.39
2019-03-27T08:46:40.889Z,1027.49
2019-03-27T08:47:40.974Z,1027.46
2019-03-27T08:48:40.883Z,1027.48
2019-03-27T08:49:40.866Z,1027.50
2019-03-27T08:50:40.857Z,1027.58
2019-03-27T08:51:40.848Z,1027.50
2019-03-27T08:52:40.843Z,1027.46
2019-03-27T08:53:40.845Z,1027.47
2019-03-27T08:54:40.835Z,1027.06
2019-03-27T08:55:40.826Z,1027.62
2019-03-27T08:56:40.821Z,1027.59
2019-03-27T08:57:40.818Z,1026.79
2019-03-27T08:58:40.811Z,1026.67
2019-03-27T08:59:40.804Z,1026.70
2019-03-27T09:00:40.806Z,1027.22
2019-03-27T09:01:40.794Z,1026.93
2019-03-27T09:02:40.787Z,1027.52
2019-03-27T09:03:40.781Z,1027.82
2019-03-27T09:04:40.774Z,1027.79
2019-03-27T09:05:40.767Z,1026.91
2019-03-27T09:06:40.762Z,1026.79
2019-03-27T09:07:40.761Z,1026.80
2019-03-27T09:08:40.756Z,1027.81
2019-03-27T09:09:40.738Z,1027.53
2019-03-27T09:10:40.731Z,1026.81
2019-03-27T09:11:40.774Z,1027.53
2019-03-27T09:12:40.717Z,1027.32
2019-03-27T09:13:40.705Z,1027.79
2019-03-27T09:14:40.708Z,1027.75
2019-03-27T09:15:40.695Z,1027.70
2019-03-27T09:16:40.682Z,1027.73
2019-03-27T09:17:40.679Z,1027.76
2019-03-27T09:18:40.666Z,1027.72
2019-03-27T09:19:40.661Z,1027.71
2019-03-27T09:20:40.653Z,1027.72
2019-03-27T09:21:40.649Z,1027.65
2019-03-27T09:22:40.639Z,1027.67
2019-03-27T09:23:40.631Z,1027.64
2019-03-27T09:24:40.625Z,1027.64
2019-03-27T09:25:40.619Z,1027.66
2019-03-27T09:26:40.614Z,1027.66
2019-03-27T09:27:40.607Z,1027.50
2019-03-27T09:28:40.602Z,1027.56
2019-03-27T09:29:40.590Z,1027.23
2019-03-27T09:30:40.592Z,1027.15
2019-03-27T09:31:45.173Z,1026.94
2019-03-27T09:32:40.578Z,1027.05
2019-03-27T09:33:40.576Z,1026.87
2019-03-27T09:34:40.556Z,1027.71
2019-03-27T09:35:40.546Z,1027.68
2019-03-27T09:36:40.546Z,1026.92
2019-03-27T09:37:40.536Z,1027.63
2019-03-27T09:38:40.527Z,1027.56
2019-03-27T09:39:40.513Z,1027.54
2019-03-27T09:40:40.508Z,1027.24
2019-03-27T09:41:40.503Z,1027.38
2019-03-27T09:42:40.497Z,1026.96
2019-03-27T09:43:40.480Z,1026.95
2019-03-27T09:44:40.493Z,1026.99
2019-03-27T09:45:40.461Z,1027.17
2019-03-27T09:46:40.451Z,1027.20
2019-03-27T09:47:40.445Z,1027.21
2019-03-27T09:48:40.434Z,1027.13
2019-03-27T09:49:49.434Z,1026.97
2019-03-27T09:50:40.414Z,1027.00
2019-03-27T09:51:40.402Z,1027.06
2019-03-27T09:52:40.402Z,1027.04
2019-03-27T09:53:40.391Z,1027.10
2019-03-27T09:54:40.380Z,1027.08
2019-03-27T09:55:40.366Z,1027.15
2019-03-27T09:56:40.357Z,1027.10
2019-03-27T09:57:40.347Z,1027.06
2019-03-27T09:58:40.334Z,1027.12
2019-03-27T09:59:40.330Z,1027.12
2019-03-27T10:00:40.324Z,1027.11
2019-03-27T10:01:40.309Z,1027.18
2019-03-27T10:02:40.306Z,1027.17
2019-03-27T10:03:40.302Z,1027.17
2019-03-27T10:04:40.283Z,1027.18
2019-03-27T10:05:40.263Z,1027.13
2019-03-27T10:06:40.256Z,1027.16
2019-03-27T10:07:40.252Z,1027.17
2019-03-27T10:08:40.234Z,1027.23
2019-03-27T10:09:40.222Z,1027.27
2019-03-27T10:10:40.214Z,1027.27
2019-03-27T10:11:40.201Z,1027.25
2019-03-27T10:12:40.193Z,1027.29
2019-03-27T10:13:40.185Z,1027.26
2019-03-27T10:14:40.177Z,1027.26
2019-03-27T10:15:40.165Z,1027.20
2019-03-27T10:16:40.147Z,1027.25
2019-03-27T10:17:40.134Z,1027.17
2019-03-27T10:18:40.128Z,1027.21
2019-03-27T10:19:40.115Z,1027.16
2019-03-27T10:20:40.102Z,1027.18
2019-03-27T10:21:40.094Z,1027.17
2019-03-27T10:22:40.080Z,1027.18
2019-03-27T10:23:40.069Z,1027.15
2019-03-27T10:24:40.058Z,1027.15
2019-03-27T10:25:40.051Z,1027.14
2019-03-27T10:26:42.682Z,1027.13
2019-03-27T10:27:40.022Z,1027.12
2019-03-27T10:28:40.011Z,1027.11
2019-03-27T10:29:40.002Z,1027.09
2019-03-27T10:30:39.987Z,1027.11
2019-03-27T10:31:39.978Z,1027.12
2019-03-27T10:32:39.965Z,1027.12
2019-03-27T10:33:39.954Z,1027.13
2019-03-27T10:34:39.939Z,1027.07
2019-03-27T10:35:39.929Z,1027.07
2019-03-27T10:36:39.914Z,1027.20
2019-03-27T10:37:39.907Z,1027.16
2019-03-27T10:38:41.672Z,1027.09
2019-03-27T10:39:39.885Z,1027.05
2019-03-27T10:40:39.869Z,1027.05
2019-03-27T10:41:39.857Z,1027.03
2019-03-27T10:42:39.849Z,1027.06
2019-03-27T10:43:39.831Z,1027.02
2019-03-27T10:44:39.824Z,1027.04
2019-03-27T10:45:39.809Z,1027.08
2019-03-27T10:46:39.795Z,1027.07
2019-03-27T10:47:39.788Z,1027.07
2019-03-27T10:48:51.973Z,1027.06
2019-03-27T10:49:39.757Z,1027.09
2019-03-27T10:50:39.751Z,1027.05
2019-03-27T10:51:39.741Z,1027.08
2019-03-27T10:52:39.721Z,1027.05
2019-03-27T10:53:39.716Z,1027.08
2019-03-27T10:54:39.699Z,1027.03
2019-03-27T10:55:39.695Z,1027.01
2019-03-27T10:56:39.669Z,1027.01
2019-03-27T10:57:39.753Z,1027.04
2019-03-27T10:58:39.654Z,1027.08
2019-03-27T10:59:39.631Z,1027.09
2019-03-27T11:00:39.631Z,1027.05
2019-03-27T11:01:39.618Z,1027.08
2019-03-27T11:02:39.593Z,1027.04
2019-03-27T11:03:39.600Z,1027.04
2019-03-27T11:04:39.582Z,1027.09
2019-03-27T11:05:39.563Z,1027.01
2019-03-27T11:06:39.545Z,1027.02
2019-03-27T11:07:39.531Z,1026.98
2019-03-27T11:08:39.527Z,1026.96
2019-03-27T11:09:39.507Z,1026.93
2019-03-27T11:10:39.492Z,1026.94
2019-03-27T11:11:39.478Z,1026.91
2019-03-27T11:12:39.464Z,1026.90
2019-03-27T11:13:39.451Z,1026.93
2019-03-27T11:14:39.439Z,1026.88
2019-03-27T11:15:39.423Z,1026.90
2019-03-27T11:16:39.411Z,1027.01
2019-03-27T11:17:39.399Z,1026.98
2019-03-27T11:18:39.388Z,1026.96
2019-03-27T11:19:39.371Z,1026.96
2019-03-27T11:20:39.360Z,1026.95
2019-03-27T11:21:39.343Z,1026.95
2019-03-27T11:22:39.331Z,1026.93
2019-03-27T11:23:39.324Z,1026.97
2019-03-27T11:24:39.302Z,1026.94
2019-03-27T11:25:39.301Z,1026.94
2019-03-27T11:26:39.279Z,1027.00
2019-03-27T11:27:39.264Z,1026.96
2019-03-27T11:28:39.254Z,1026.94
2019-03-27T11:29:39.236Z,1026.98
2019-03-27T11:30:39.227Z,1026.97
2019-03-27T11:31:39.205Z,1026.99
2019-03-27T11:32:39.196Z,1027.00
2019-03-27T11:33:39.180Z,1026.97
2019-03-27T11:34:39.170Z,1026.96
2019-03-27T11:35:39.159Z,1026.96
2019-03-27T11:36:39.140Z,1026.90
2019-03-27T11:37:39.132Z,1026.87
2019-03-27T11:38:39.122Z,1026.86
2019-03-27T11:39:39.104Z,1026.83
2019-03-27T11:40:39.088Z,1026.80
2019-03-27T11:41:39.076Z,1026.87
2019-03-27T11:42:39.060Z,1026.86
2019-03-27T11:43:39.051Z,1026.88
2019-03-27T11:44:39.041Z,1026.89
2019-03-27T11:45:39.029Z,1026.93
2019-03-27T11:46:39.014Z,1026.85
2019-03-27T11:47:38.994Z,1026.90
2019-03-27T11:48:38.987Z,1026.84
2019-03-27T11:49:38.971Z,1026.84
2019-03-27T11:50:45.235Z,1026.81
2019-03-27T11:51:38.944Z,1026.81
2019-03-27T11:52:38.936Z,1026.82
2019-03-27T11:53:38.916Z,1026.82
2019-03-27T11:54:38.921Z,1026.79
2019-03-27T11:55:38.886Z,1026.73
2019-03-27T11:56:38.873Z,1026.77
2019-03-27T11:57:38.907Z,1026.80
2019-03-27T11:58:38.859Z,1026.78
2019-03-27T11:59:38.834Z,1026.73
2019-03-27T12:00:53.480Z,1026.75
2019-03-27T12:01:42.205Z,1026.73
2019-03-27T12:02:38.793Z,1026.68
2019-03-27T12:03:38.779Z,1026.70
2019-03-27T12:04:38.764Z,1026.72
2019-03-27T12:05:38.755Z,1026.73